createdAt,value
2017-03-22T00:00:36.999Z,1010.04
2017-03-22T00:01:46.969Z,1010.04
2017-03-22T00:02:57.243Z,1009.99
2017-03-22T00:04:07.177Z,1010
2017-03-22T00:05:17.113Z,1009.96
2017-03-22T00:06:27.337Z,1009.95
2017-03-22T00:07:37.309Z,1009.94
2017-03-22T00:08:47.550Z,1009.96
2017-03-22T00:09:57.480Z,1009.95
2017-03-22T00:11:06.806Z,1009.97
2017-03-22T00:12:17.293Z,1009.94
2017-03-22T00:13:27.540Z,1009.94
2017-03-22T00:14:37.172Z,1009.92
2017-03-22T00:15:46.800Z,1009.94
2017-03-22T00:16:56.727Z,1009.93
2017-03-22T00:18:06.802Z,1009.93
2017-03-22T00:19:16.746Z,1009.96
2017-03-22T00:20:26.747Z,1009.91
2017-03-22T00:21:36.695Z,1009.92
2017-03-22T00:22:46.638Z,1009.89
2017-03-22T00:23:57.120Z,1009.92
2017-03-22T00:25:06.750Z,1009.89
2017-03-22T00:26:16.369Z,1009.91
2017-03-22T00:27:26.280Z,1009.93
2017-03-22T00:28:36.216Z,1009.93
2017-03-22T00:29:46.411Z,1009.94
2017-03-22T00:30:56.363Z,1009.98
2017-03-22T00:32:06.625Z,1010.02
2017-03-22T00:33:16.541Z,1009.99
2017-03-22T00:34:26.481Z,1009.97
2017-03-22T00:35:36.373Z,1009.98
2017-03-22T00:36:46.636Z,1009.95
2017-03-22T00:37:56.564Z,1009.91
2017-03-22T00:39:06.226Z,1009.96
2017-03-22T00:40:16.480Z,1009.94
2017-03-22T00:41:27.152Z,1009.94
2017-03-22T00:42:37.058Z,1009.93
2017-03-22T00:43:47.017Z,1009.89
2017-03-22T00:44:57.256Z,1009.93
2017-03-22T00:46:06.250Z,1009.92
2017-03-22T00:47:15.966Z,1009.91
2017-03-22T00:48:25.885Z,1009.9
2017-03-22T00:49:36.156Z,1009.91
2017-03-22T00:50:46.375Z,1009.89
2017-03-22T00:51:55.662Z,1009.89
2017-03-22T00:53:05.528Z,1009.91
2017-03-22T00:54:15.478Z,1009.9
2017-03-22T00:55:25.405Z,1009.86
2017-03-22T00:56:35.353Z,1009.85
2017-03-22T00:57:45.300Z,1009.84
2017-03-22T00:58:55.023Z,1009.82
2017-03-22T01:00:04.661Z,1009.8
2017-03-22T01:01:14.341Z,1009.83
2017-03-22T01:02:24.258Z,1009.8
2017-03-22T01:03:34.195Z,1009.85
2017-03-22T01:04:44.765Z,1009.83
2017-03-22T01:05:54.996Z,1009.83
2017-03-22T01:07:04.907Z,1009.89
2017-03-22T01:08:14.754Z,1009.89
2017-03-22T01:09:24.688Z,1009.9
2017-03-22T01:10:35.180Z,1009.91
2017-03-22T01:11:45.412Z,1009.9
2017-03-22T01:12:55.319Z,1009.91
2017-03-22T01:14:05.242Z,1009.92
2017-03-22T01:15:15.207Z,1009.91
2017-03-22T01:16:24.626Z,1009.93
2017-03-22T01:17:34.238Z,1009.94
2017-03-22T01:18:43.863Z,1009.96
2017-03-22T01:19:53.482Z,1009.92
2017-03-22T01:21:02.827Z,1009.93
2017-03-22T01:22:12.477Z,1009.92
2017-03-22T01:23:22.709Z,1009.93
2017-03-22T01:24:32.331Z,1009.92
2017-03-22T01:25:42.261Z,1009.92
2017-03-22T01:26:52.214Z,1009.93
2017-03-22T01:28:02.490Z,1009.91
2017-03-22T01:29:12.115Z,1009.93
2017-03-22T01:30:22.340Z,1009.93
2017-03-22T01:31:32.599Z,1009.88
2017-03-22T01:32:42.238Z,1009.87
2017-03-22T01:33:52.361Z,1009.89
2017-03-22T01:35:02.607Z,1009.87
2017-03-22T01:36:12.847Z,1009.89
2017-03-22T01:37:23.080Z,1009.89
2017-03-22T01:38:32.468Z,1009.91
2017-03-22T01:39:42.865Z,1009.89
2017-03-22T01:40:52.491Z,1009.9
2017-03-22T01:42:02.122Z,1009.92
2017-03-22T01:43:11.120Z,1009.9
2017-03-22T01:44:21.366Z,1009.91
2017-03-22T01:45:31.624Z,1009.89
2017-03-22T01:46:41.253Z,1009.9
2017-03-22T01:47:51.490Z,1009.87
2017-03-22T01:49:00.810Z,1009.85
2017-03-22T01:50:10.842Z,1009.81
2017-03-22T01:51:20.900Z,1009.82
2017-03-22T01:52:30.813Z,1009.82
2017-03-22T01:53:40.721Z,1009.83
2017-03-22T01:54:50.959Z,1009.82
2017-03-22T01:56:00.563Z,1009.87
2017-03-22T01:57:10.521Z,1009.81
2017-03-22T01:58:20.431Z,1009.85
2017-03-22T01:59:30.652Z,1009.88
2017-03-22T02:00:40.264Z,1009.82
2017-03-22T02:01:49.872Z,1009.85
2017-03-22T02:03:01.139Z,1009.89
2017-03-22T02:04:11.052Z,1009.89
2017-03-22T02:05:20.983Z,1009.87
2017-03-22T02:06:30.897Z,1009.89
2017-03-22T02:07:40.505Z,1009.88
2017-03-22T02:08:50.731Z,1009.87
2017-03-22T02:10:00.650Z,1009.91
2017-03-22T02:11:10.566Z,1009.89
2017-03-22T02:12:20.173Z,1009.85
2017-03-22T02:13:29.473Z,1009.85
2017-03-22T02:14:39.846Z,1009.85
2017-03-22T02:15:50.122Z,1009.86
2017-03-22T02:17:00.338Z,1009.86
2017-03-22T02:18:09.945Z,1009.85
2017-03-22T02:19:20.173Z,1009.86
2017-03-22T02:20:30.545Z,1009.89
2017-03-22T02:21:40.152Z,1009.84
2017-03-22T02:22:50.067Z,1009.84
2017-03-22T02:23:59.987Z,1009.89
2017-03-22T02:25:10.219Z,1009.86
2017-03-22T02:26:20.237Z,1009.86
2017-03-22T02:27:30.458Z,1009.82
2017-03-22T02:28:40.686Z,1009.86
2017-03-22T02:29:50.601Z,1009.87
2017-03-22T02:31:00.528Z,1009.89
2017-03-22T02:32:10.486Z,1009.89
2017-03-22T02:33:20.097Z,1009.85
2017-03-22T02:34:29.708Z,1009.92
2017-03-22T02:35:39.924Z,1009.89
2017-03-22T02:36:50.143Z,1009.91
2017-03-22T02:38:00.224Z,1009.91
2017-03-22T02:39:10.143Z,1009.92
2017-03-22T02:40:20.366Z,1009.94
2017-03-22T02:41:29.970Z,1009.99
2017-03-22T02:42:39.570Z,1009.94
2017-03-22T02:43:49.627Z,1009.94
2017-03-22T02:44:59.540Z,1009.99
2017-03-22T02:46:09.147Z,1010
2017-03-22T02:47:18.436Z,1010
2017-03-22T02:48:28.345Z,1009.99
2017-03-22T02:49:38.060Z,1010
2017-03-22T02:50:47.983Z,1010.04
2017-03-22T02:51:57.282Z,1010
2017-03-22T02:53:07.265Z,1010.02
2017-03-22T02:54:17.188Z,1009.98
2017-03-22T02:55:27.283Z,1009.97
2017-03-22T02:56:37.503Z,1010.01
2017-03-22T02:57:47.409Z,1010
2017-03-22T02:58:57.643Z,1009.99
2017-03-22T03:00:07.253Z,1010.02
2017-03-22T03:01:17.778Z,1010.06
2017-03-22T03:02:27.700Z,1010.06
2017-03-22T03:03:37.317Z,1010.08
2017-03-22T03:04:46.616Z,1010.1
2017-03-22T03:05:56.238Z,1010.03
2017-03-22T03:07:06.307Z,1010.08
2017-03-22T03:08:16.221Z,1010.02
2017-03-22T03:09:26.157Z,1010.06
2017-03-22T03:10:35.770Z,1009.98
2017-03-22T03:11:46.015Z,1010.01
2017-03-22T03:12:56.246Z,1010.02
2017-03-22T03:14:06.166Z,1010.03
2017-03-22T03:15:15.777Z,1010.05
2017-03-22T03:16:25.985Z,1010.02
2017-03-22T03:17:35.893Z,1010.04
2017-03-22T03:18:46.129Z,1010.09
2017-03-22T03:19:56.357Z,1010.05
2017-03-22T03:21:05.659Z,1010.03
2017-03-22T03:22:15.581Z,1010.03
2017-03-22T03:23:25.503Z,1010.03
2017-03-22T03:24:35.718Z,1010.06
2017-03-22T03:25:45.938Z,1010.07
2017-03-22T03:26:55.841Z,1010.08
2017-03-22T03:28:06.071Z,1010.1
2017-03-22T03:29:15.998Z,1010.16
2017-03-22T03:30:26.371Z,1010.12
2017-03-22T03:31:36.576Z,1010.15
2017-03-22T03:32:46.167Z,1010.16
2017-03-22T03:33:56.389Z,1010.14
2017-03-22T03:35:06.300Z,1010.17
2017-03-22T03:36:16.817Z,1010.14
2017-03-22T03:37:26.723Z,1010.15
2017-03-22T03:38:36.629Z,1010.16
2017-03-22T03:39:46.850Z,1010.17
2017-03-22T03:40:56.766Z,1010.17
2017-03-22T03:42:07.081Z,1010.12
2017-03-22T03:43:16.680Z,1010.13
2017-03-22T03:44:26.595Z,1010.13
2017-03-22T03:45:35.891Z,1010.16
2017-03-22T03:46:44.882Z,1010.15
2017-03-22T03:47:54.533Z,1010.14
2017-03-22T03:49:04.447Z,1010.11
2017-03-22T03:50:14.403Z,1010.13
2017-03-22T03:51:24.001Z,1010.1
2017-03-22T03:52:33.912Z,1010.07
2017-03-22T03:53:44.231Z,1010.05
2017-03-22T03:54:54.151Z,1010.03
2017-03-22T03:56:03.483Z,1010
2017-03-22T03:57:13.392Z,1010.01
2017-03-22T03:58:23.634Z,1009.99
2017-03-22T03:59:33.559Z,1009.95
2017-03-22T04:00:43.807Z,1009.96
2017-03-22T04:01:53.416Z,1010.01
2017-03-22T04:03:03.341Z,1009.94
2017-03-22T04:04:12.951Z,1009.92
2017-03-22T04:05:22.969Z,1009.95
2017-03-22T04:06:32.891Z,1009.92
2017-03-22T04:07:42.506Z,1009.9
2017-03-22T04:08:52.745Z,1009.9
2017-03-22T04:10:02.368Z,1009.91
2017-03-22T04:11:12.549Z,1009.93
2017-03-22T04:12:22.773Z,1009.92
2017-03-22T04:13:32.683Z,1009.93
2017-03-22T04:14:42.907Z,1009.93
2017-03-22T04:15:52.834Z,1009.97
2017-03-22T04:17:03.248Z,1009.92
2017-03-22T04:18:12.238Z,1009.93
2017-03-22T04:19:22.473Z,1009.87
2017-03-22T04:20:32.391Z,1009.9
2017-03-22T04:21:41.999Z,1009.89
2017-03-22T04:22:51.997Z,1009.89
2017-03-22T04:24:02.230Z,1009.89
2017-03-22T04:25:12.462Z,1009.88
2017-03-22T04:26:22.362Z,1009.86
2017-03-22T04:27:31.660Z,1009.88
2017-03-22T04:28:41.102Z,1009.9
2017-03-22T04:29:51.005Z,1009.88
2017-03-22T04:31:00.912Z,1009.88
2017-03-22T04:32:10.503Z,1009.91
2017-03-22T04:33:20.719Z,1009.92
2017-03-22T04:34:31.097Z,1009.9
2017-03-22T04:35:41.321Z,1009.87
2017-03-22T04:36:50.938Z,1009.9
2017-03-22T04:38:01.154Z,1009.86
2017-03-22T04:39:11.052Z,1009.83
2017-03-22T04:40:20.453Z,1009.85
2017-03-22T04:41:30.664Z,1009.81
2017-03-22T04:42:40.570Z,1009.85
2017-03-22T04:43:50.490Z,1009.84
2017-03-22T04:45:00.720Z,1009.81
2017-03-22T04:46:11.088Z,1009.8
2017-03-22T04:47:20.996Z,1009.79
2017-03-22T04:48:30.900Z,1009.82
2017-03-22T04:49:40.811Z,1009.81
2017-03-22T04:50:51.036Z,1009.84
2017-03-22T04:52:01.554Z,1009.84
2017-03-22T04:53:11.778Z,1009.86
2017-03-22T04:54:21.696Z,1009.86
2017-03-22T04:55:31.909Z,1009.9
2017-03-22T04:56:41.506Z,1009.9
2017-03-22T04:57:51.500Z,1009.9
2017-03-22T04:59:00.498Z,1009.9
2017-03-22T05:00:10.118Z,1009.89
2017-03-22T05:01:20.015Z,1009.92
2017-03-22T05:02:29.610Z,1009.94
2017-03-22T05:03:39.508Z,1009.92
2017-03-22T05:04:49.431Z,1009.89
2017-03-22T05:05:59.043Z,1009.93
2017-03-22T05:07:09.258Z,1009.88
2017-03-22T05:08:19.177Z,1009.88
2017-03-22T05:09:29.395Z,1009.85
2017-03-22T05:10:39.307Z,1009.89
2017-03-22T05:11:48.905Z,1009.91
2017-03-22T05:12:58.502Z,1009.9
2017-03-22T05:14:08.116Z,1009.89
2017-03-22T05:15:18.433Z,1009.86
2017-03-22T05:16:28.031Z,1009.89
2017-03-22T05:17:38.239Z,1009.91
2017-03-22T05:18:47.547Z,1009.9
2017-03-22T05:19:57.469Z,1009.9
2017-03-22T05:21:07.517Z,1009.87
2017-03-22T05:22:17.124Z,1009.88
2017-03-22T05:23:27.339Z,1009.88
2017-03-22T05:24:37.247Z,1009.88
2017-03-22T05:25:47.162Z,1009.86
2017-03-22T05:26:57.431Z,1009.86
2017-03-22T05:28:07.331Z,1009.88
2017-03-22T05:29:16.630Z,1009.9
2017-03-22T05:30:26.549Z,1009.84
2017-03-22T05:31:36.454Z,1009.84
2017-03-22T05:32:47.047Z,1009.86
2017-03-22T05:33:56.953Z,1009.86
2017-03-22T05:35:06.576Z,1009.84
2017-03-22T05:36:16.797Z,1009.86
2017-03-22T05:37:26.392Z,1009.83
2017-03-22T05:38:36.725Z,1009.84
2017-03-22T05:39:46.651Z,1009.87
2017-03-22T05:40:56.864Z,1009.83
2017-03-22T05:42:06.795Z,1009.81
2017-03-22T05:43:16.698Z,1009.85
2017-03-22T05:44:26.962Z,1009.84
2017-03-22T05:45:37.168Z,1009.88
2017-03-22T05:46:47.074Z,1009.87
2017-03-22T05:47:56.696Z,1009.84
2017-03-22T05:49:06.911Z,1009.84
2017-03-22T05:50:16.992Z,1009.83
2017-03-22T05:51:26.599Z,1009.81
2017-03-22T05:52:36.499Z,1009.84
2017-03-22T05:53:46.724Z,1009.82
2017-03-22T05:54:56.022Z,1009.77
2017-03-22T05:56:06.032Z,1009.8
2017-03-22T05:57:15.633Z,1009.75
2017-03-22T05:58:25.234Z,1009.8
2017-03-22T05:59:35.173Z,1009.77
2017-03-22T06:00:45.123Z,1009.81
2017-03-22T06:01:55.366Z,1009.8
2017-03-22T06:03:05.684Z,1009.78
2017-03-22T06:04:15.275Z,1009.83
2017-03-22T06:05:24.902Z,1009.8
2017-03-22T06:06:34.813Z,1009.83
2017-03-22T06:07:44.870Z,1009.85
2017-03-22T06:08:54.799Z,1009.87
2017-03-22T06:10:04.764Z,1009.88
2017-03-22T06:11:14.386Z,1009.88
2017-03-22T06:12:23.985Z,1009.85
2017-03-22T06:13:34.601Z,1009.85
2017-03-22T06:14:44.523Z,1009.83
2017-03-22T06:15:54.747Z,1009.85
2017-03-22T06:17:04.358Z,1009.84
2017-03-22T06:18:13.972Z,1009.88
2017-03-22T06:19:23.820Z,1009.89
2017-03-22T06:20:33.426Z,1009.9
2017-03-22T06:21:43.439Z,1009.86
2017-03-22T06:22:53.381Z,1009.89
2017-03-22T06:24:03.340Z,1009.9
2017-03-22T06:25:13.449Z,1009.89
2017-03-22T06:26:23.357Z,1009.86
2017-03-22T06:27:32.959Z,1009.88
2017-03-22T06:28:42.593Z,1009.89
2017-03-22T06:29:52.839Z,1009.91
2017-03-22T06:31:02.655Z,1009.94
2017-03-22T06:32:12.892Z,1009.91
2017-03-22T06:33:22.819Z,1009.89
2017-03-22T06:34:32.795Z,1009.95
2017-03-22T06:35:42.433Z,1009.9
2017-03-22T06:36:52.335Z,1009.96
2017-03-22T06:38:02.292Z,1009.94
2017-03-22T06:39:11.924Z,1009.93
2017-03-22T06:40:21.616Z,1009.94
2017-03-22T06:41:31.864Z,1009.92
2017-03-22T06:42:41.664Z,1009.95
2017-03-22T06:43:51.332Z,1009.95
2017-03-22T06:45:01.342Z,1009.92
2017-03-22T06:46:11.575Z,1009.91
2017-03-22T06:47:20.560Z,1009.96
2017-03-22T06:48:31.190Z,1009.99
2017-03-22T06:49:41.131Z,1009.96
2017-03-22T06:50:50.786Z,1009.99
2017-03-22T06:52:01.020Z,1010.03
2017-03-22T06:53:10.645Z,1010.01
2017-03-22T06:54:20.812Z,1010.02
2017-03-22T06:55:31.027Z,1009.96
2017-03-22T06:56:40.935Z,1009.98
2017-03-22T06:57:50.921Z,1010.01
2017-03-22T06:59:00.862Z,1009.98
2017-03-22T07:00:11.194Z,1010.01
2017-03-22T07:01:20.831Z,1009.98
2017-03-22T07:02:30.471Z,1010.01
2017-03-22T07:03:40.088Z,1010.02
2017-03-22T07:04:50.395Z,1010.01
2017-03-22T07:06:00.626Z,1010.03
2017-03-22T07:07:10.536Z,1010.01
2017-03-22T07:08:20.484Z,1010.05
2017-03-22T07:09:30.415Z,1010.02
2017-03-22T07:10:40.026Z,1010.05
2017-03-22T07:11:50.424Z,1010.04
2017-03-22T07:13:00.073Z,1010.04
2017-03-22T07:14:09.701Z,1010.06
2017-03-22T07:15:19.943Z,1010.1
2017-03-22T07:16:30.176Z,1010.06
2017-03-22T07:17:40.036Z,1010.08
2017-03-22T07:18:50.264Z,1010.08
2017-03-22T07:20:00.182Z,1010.09
2017-03-22T07:21:10.397Z,1010.08
2017-03-22T07:22:20.306Z,1010.1
2017-03-22T07:23:30.215Z,1010.09
2017-03-22T07:24:40.430Z,1010.09
2017-03-22T07:25:50.346Z,1010.09
2017-03-22T07:27:00.273Z,1010.1
2017-03-22T07:28:09.869Z,1010.13
2017-03-22T07:29:19.627Z,1010.12
2017-03-22T07:30:29.533Z,1010.08
2017-03-22T07:31:39.442Z,1010.15
2017-03-22T07:32:48.735Z,1010.18
2017-03-22T07:33:58.959Z,1010.12
2017-03-22T07:35:09.025Z,1010.18
2017-03-22T07:36:19.241Z,1010.16
2017-03-22T07:37:29.163Z,1010.15
2017-03-22T07:38:39.085Z,1010.13
2017-03-22T07:39:48.997Z,1010.13
2017-03-22T07:40:59.210Z,1010.1
2017-03-22T07:42:08.834Z,1010.16
2017-03-22T07:43:18.439Z,1010.14
2017-03-22T07:44:28.684Z,1010.19
2017-03-22T07:45:38.629Z,1010.23
2017-03-22T07:46:48.522Z,1010.23
2017-03-22T07:47:58.746Z,1010.23
2017-03-22T07:49:08.968Z,1010.27
2017-03-22T07:50:19.203Z,1010.29
2017-03-22T07:51:28.809Z,1010.25
2017-03-22T07:52:39.091Z,1010.24
2017-03-22T07:53:49.015Z,1010.28
2017-03-22T07:55:00.000Z,1010.25
2017-03-22T07:56:10.267Z,1010.26
2017-03-22T07:57:20.492Z,1010.26
2017-03-22T07:58:30.857Z,1010.25
2017-03-22T07:59:41.082Z,1010.27
2017-03-22T08:00:51.000Z,1010.29
2017-03-22T08:02:00.905Z,1010.23
2017-03-22T08:03:10.522Z,1010.26
2017-03-22T08:04:20.484Z,1010.27
2017-03-22T08:05:30.690Z,1010.19
2017-03-22T08:06:40.615Z,1010.17
2017-03-22T08:07:50.206Z,1010.18
2017-03-22T08:08:59.514Z,1010.16
2017-03-22T08:10:09.882Z,1010.17
2017-03-22T08:11:19.493Z,1010.21
2017-03-22T08:12:29.405Z,1010.24
2017-03-22T08:13:39.327Z,1010.24
2017-03-22T08:14:49.254Z,1010.23
2017-03-22T08:15:59.217Z,1010.29
2017-03-22T08:17:09.152Z,1010.32
2017-03-22T08:18:19.386Z,1010.33
2017-03-22T08:19:29.838Z,1010.33
2017-03-22T08:20:40.054Z,1010.35
2017-03-22T08:21:49.810Z,1010.34
2017-03-22T08:22:59.761Z,1010.37
2017-03-22T08:24:09.698Z,1010.35
2017-03-22T08:25:19.300Z,1010.36
2017-03-22T08:26:29.525Z,1010.33
2017-03-22T08:27:38.820Z,1010.31
2017-03-22T08:28:48.748Z,1010.33
2017-03-22T08:29:59.008Z,1010.31
2017-03-22T08:31:08.332Z,1010.3
2017-03-22T08:32:18.563Z,1010.31
2017-03-22T08:33:28.779Z,1010.33
2017-03-22T08:34:38.388Z,1010.29
2017-03-22T08:35:48.305Z,1010.33
2017-03-22T08:36:57.905Z,1010.33
2017-03-22T08:38:07.828Z,1010.34
2017-03-22T08:39:17.435Z,1010.34
2017-03-22T08:40:27.686Z,1010.34
2017-03-22T08:41:37.684Z,1010.34
2017-03-22T08:42:47.630Z,1010.31
2017-03-22T08:43:57.253Z,1010.3
2017-03-22T08:45:07.117Z,1010.31
2017-03-22T08:46:17.054Z,1010.32
2017-03-22T08:47:26.964Z,1010.29
2017-03-22T08:48:36.573Z,1010.27
2017-03-22T08:49:46.185Z,1010.24
2017-03-22T08:50:56.353Z,1010.2
2017-03-22T08:52:06.566Z,1010.22
2017-03-22T08:53:16.478Z,1010.22
2017-03-22T08:54:26.428Z,1010.17
2017-03-22T08:55:35.419Z,1010.21
2017-03-22T08:56:45.735Z,1010.25
2017-03-22T08:57:55.669Z,1010.21
2017-03-22T08:59:05.600Z,1010.18
2017-03-22T09:00:15.515Z,1010.16
2017-03-22T09:01:25.141Z,1010.22
2017-03-22T09:02:34.890Z,1010.2
2017-03-22T09:03:44.798Z,1010.21
2017-03-22T09:04:55.013Z,1010.19
2017-03-22T09:06:04.931Z,1010.21
2017-03-22T09:07:14.533Z,1010.23
2017-03-22T09:08:25.008Z,1010.23
2017-03-22T09:09:34.936Z,1010.18
2017-03-22T09:10:45.157Z,1010.2
2017-03-22T09:11:55.085Z,1010.23
2017-03-22T09:13:04.998Z,1010.23
2017-03-22T09:14:15.142Z,1010.24
2017-03-22T09:15:24.129Z,1010.2
2017-03-22T09:16:34.050Z,1010.21
2017-03-22T09:17:43.664Z,1010.17
2017-03-22T09:18:53.654Z,1010.22
2017-03-22T09:20:03.984Z,1010.26
2017-03-22T09:21:13.910Z,1010.2
2017-03-22T09:22:23.852Z,1010.22
2017-03-22T09:23:33.483Z,1010.26
2017-03-22T09:24:43.121Z,1010.22
2017-03-22T09:25:52.321Z,1010.25
2017-03-22T09:27:02.550Z,1010.33
2017-03-22T09:28:11.867Z,1010.25
2017-03-22T09:29:21.770Z,1010.22
2017-03-22T09:30:31.364Z,1010.3
2017-03-22T09:31:41.520Z,1010.31
2017-03-22T09:32:51.434Z,1010.28
2017-03-22T09:34:01.042Z,1010.27
2017-03-22T09:35:10.667Z,1010.24
2017-03-22T09:36:20.596Z,1010.21
2017-03-22T09:37:31.113Z,1010.25
2017-03-22T09:38:40.714Z,1010.24
2017-03-22T09:39:50.314Z,1010.2
2017-03-22T09:41:00.524Z,1010.25
2017-03-22T09:42:10.739Z,1010.22
2017-03-22T09:43:20.502Z,1010.26
2017-03-22T09:44:30.718Z,1010.26
2017-03-22T09:45:40.315Z,1010.27
2017-03-22T09:46:49.610Z,1010.22
2017-03-22T09:47:59.556Z,1010.2
2017-03-22T09:49:08.852Z,1010.21
2017-03-22T09:50:18.456Z,1010.21
2017-03-22T09:51:28.674Z,1010.2
2017-03-22T09:52:38.343Z,1010.2
2017-03-22T09:53:47.951Z,1010.18
2017-03-22T09:54:57.960Z,1010.17
2017-03-22T09:56:07.879Z,1010.21
2017-03-22T09:57:17.787Z,1010.19
2017-03-22T09:58:28.006Z,1010.18
2017-03-22T09:59:38.253Z,1010.16
2017-03-22T10:00:48.577Z,1010.18
2017-03-22T10:01:58.482Z,1010.19
2017-03-22T10:03:07.785Z,1010.16
2017-03-22T10:04:17.698Z,1010.18
2017-03-22T10:05:27.927Z,1010.2
2017-03-22T10:06:37.531Z,1010.19
2017-03-22T10:07:47.132Z,1010.13
2017-03-22T10:08:57.038Z,1010.14
2017-03-22T10:10:06.633Z,1010.12
2017-03-22T10:11:16.543Z,1010.16
2017-03-22T10:12:26.511Z,1010.12
2017-03-22T10:13:36.128Z,1010.15
2017-03-22T10:14:46.077Z,1010.13
2017-03-22T10:15:55.693Z,1010.15
2017-03-22T10:17:05.316Z,1010.19
2017-03-22T10:18:14.949Z,1010.17
2017-03-22T10:19:24.559Z,1010.17
2017-03-22T10:20:34.469Z,1010.22
2017-03-22T10:21:44.378Z,1010.19
2017-03-22T10:22:53.383Z,1010.21
2017-03-22T10:24:03.728Z,1010.21
2017-03-22T10:25:13.339Z,1010.21
2017-03-22T10:26:22.967Z,1010.22
2017-03-22T10:27:32.576Z,1010.28
2017-03-22T10:28:42.495Z,1010.21
2017-03-22T10:29:52.147Z,1010.2
2017-03-22T10:31:02.054Z,1010.16
2017-03-22T10:32:12.255Z,1010.18
2017-03-22T10:33:22.185Z,1010.22
2017-03-22T10:34:32.094Z,1010.16
2017-03-22T10:35:42.157Z,1010.22
2017-03-22T10:36:52.383Z,1010.19
2017-03-22T10:38:02.596Z,1010.21
2017-03-22T10:39:12.509Z,1010.22
2017-03-22T10:40:22.109Z,1010.17
2017-03-22T10:41:32.123Z,1010.24
2017-03-22T10:42:42.041Z,1010.2
2017-03-22T10:43:51.383Z,1010.18
2017-03-22T10:45:01.031Z,1010.2
2017-03-22T10:46:10.656Z,1010.19
2017-03-22T10:47:21.197Z,1010.19
2017-03-22T10:48:31.432Z,1010.21
2017-03-22T10:49:41.683Z,1010.17
2017-03-22T10:50:51.290Z,1010.16
2017-03-22T10:52:01.212Z,1010.14
2017-03-22T10:53:11.431Z,1010.18
2017-03-22T10:54:21.660Z,1010.18
2017-03-22T10:55:31.584Z,1010.2
2017-03-22T10:56:40.927Z,1010.15
2017-03-22T10:57:50.532Z,1010.17
2017-03-22T10:58:59.977Z,1010.19
2017-03-22T11:00:09.274Z,1010.2
2017-03-22T11:01:19.183Z,1010.14
2017-03-22T11:02:29.093Z,1010.15
2017-03-22T11:03:39.012Z,1010.11
2017-03-22T11:04:48.879Z,1010.13
2017-03-22T11:05:58.817Z,1010.14
2017-03-22T11:07:09.043Z,1010.14
2017-03-22T11:08:18.972Z,1010.1
2017-03-22T11:09:29.202Z,1010.13
2017-03-22T11:10:39.369Z,1010.11
2017-03-22T11:11:48.977Z,1010.08
2017-03-22T11:12:58.589Z,1010.09
2017-03-22T11:14:08.504Z,1010.13
2017-03-22T11:15:17.848Z,1010.06
2017-03-22T11:16:28.330Z,1010.1
2017-03-22T11:17:38.268Z,1010.09
2017-03-22T11:18:48.519Z,1010.09
2017-03-22T11:19:58.462Z,1010.07
2017-03-22T11:21:08.080Z,1010.06
2017-03-22T11:22:18.405Z,1010.08
2017-03-22T11:23:28.334Z,1010.04
2017-03-22T11:24:38.263Z,1010.05
2017-03-22T11:25:47.583Z,1010.02
2017-03-22T11:26:57.850Z,1010.01
2017-03-22T11:28:07.941Z,1010.03
2017-03-22T11:29:17.627Z,1010.04
2017-03-22T11:30:27.251Z,1010.04
2017-03-22T11:31:37.168Z,1009.92
2017-03-22T11:32:47.403Z,1009.95
2017-03-22T11:33:57.490Z,1009.98
2017-03-22T11:35:07.416Z,1010.02
2017-03-22T11:36:17.640Z,1010.01
2017-03-22T11:37:27.861Z,1009.99
2017-03-22T11:38:37.789Z,1009.89
2017-03-22T11:39:47.499Z,1009.93
2017-03-22T11:40:57.425Z,1009.97
2017-03-22T11:42:07.677Z,1009.89
2017-03-22T11:43:17.893Z,1009.92
2017-03-22T11:44:27.812Z,1009.96
2017-03-22T11:45:37.930Z,1009.91
2017-03-22T11:46:47.859Z,1009.84
2017-03-22T11:47:57.786Z,1009.78
2017-03-22T11:49:07.694Z,1009.76
2017-03-22T11:50:17.606Z,1009.8
2017-03-22T11:51:27.630Z,1009.78
2017-03-22T11:52:37.875Z,1009.74
2017-03-22T11:53:48.123Z,1009.76
2017-03-22T11:54:57.740Z,1009.79
2017-03-22T11:56:07.973Z,1009.79
2017-03-22T11:57:18.050Z,1009.72
2017-03-22T11:58:27.957Z,1009.68
2017-03-22T11:59:38.548Z,1009.67
2017-03-22T12:00:48.451Z,1009.76
2017-03-22T12:01:57.446Z,1009.71
2017-03-22T12:03:07.922Z,1009.71
2017-03-22T12:04:17.546Z,1009.77
2017-03-22T12:05:27.164Z,1009.67
2017-03-22T12:06:37.396Z,1009.67
2017-03-22T12:07:47.324Z,1009.68
2017-03-22T12:08:57.734Z,1009.68
2017-03-22T12:10:07.952Z,1009.66
2017-03-22T12:11:17.861Z,1009.68
2017-03-22T12:12:27.812Z,1009.72
2017-03-22T12:13:37.460Z,1009.71
2017-03-22T12:14:47.172Z,1009.71
2017-03-22T12:15:57.086Z,1009.69
2017-03-22T12:17:06.694Z,1009.68
2017-03-22T12:18:16.620Z,1009.66
2017-03-22T12:19:26.210Z,1009.66
2017-03-22T12:20:36.169Z,1009.7
2017-03-22T12:21:46.390Z,1009.69
2017-03-22T12:22:56.303Z,1009.68
2017-03-22T12:24:05.907Z,1009.67
2017-03-22T12:25:15.216Z,1009.63
2017-03-22T12:26:25.323Z,1009.66
2017-03-22T12:27:35.555Z,1009.63
2017-03-22T12:28:45.166Z,1009.62
2017-03-22T12:29:54.786Z,1009.62
2017-03-22T12:31:04.699Z,1009.65
2017-03-22T12:32:14.551Z,1009.61
2017-03-22T12:33:24.166Z,1009.55
2017-03-22T12:34:34.077Z,1009.56
2017-03-22T12:35:43.688Z,1009.5
2017-03-22T12:36:53.285Z,1009.51
2017-03-22T12:38:03.147Z,1009.5
2017-03-22T12:39:12.769Z,1009.51
2017-03-22T12:40:22.993Z,1009.47
2017-03-22T12:41:32.916Z,1009.46
2017-03-22T12:42:42.566Z,1009.48
2017-03-22T12:43:52.776Z,1009.53
2017-03-22T12:45:02.688Z,1009.46
2017-03-22T12:46:12.617Z,1009.4
2017-03-22T12:47:22.535Z,1009.41
2017-03-22T12:48:32.441Z,1009.39
2017-03-22T12:49:42.502Z,1009.4
2017-03-22T12:50:52.106Z,1009.36
2017-03-22T12:52:02.012Z,1009.35
2017-03-22T12:53:12.012Z,1009.32
2017-03-22T12:54:21.813Z,1009.27
2017-03-22T12:55:32.309Z,1009.28
2017-03-22T12:56:41.977Z,1009.27
2017-03-22T12:57:51.915Z,1009.23
2017-03-22T12:59:01.842Z,1009.17
2017-03-22T13:00:11.758Z,1009.19
2017-03-22T13:01:22.125Z,1009.15
2017-03-22T13:02:32.039Z,1009.14
2017-03-22T13:03:42.261Z,1009.16
2017-03-22T13:04:52.175Z,1009.07
2017-03-22T13:06:02.095Z,1009.11
2017-03-22T13:07:12.315Z,1009.17
2017-03-22T13:08:21.625Z,1009.16
2017-03-22T13:09:30.923Z,1009.16
2017-03-22T13:10:40.820Z,1009.17
2017-03-22T13:11:51.027Z,1009.16
2017-03-22T13:13:00.795Z,1009.15
2017-03-22T13:14:11.043Z,1009.15
2017-03-22T13:15:20.967Z,1009.19
2017-03-22T13:16:30.591Z,1009.1
2017-03-22T13:17:40.521Z,1009.11
2017-03-22T13:18:51.057Z,1009.08
2017-03-22T13:20:00.982Z,1009.04
2017-03-22T13:21:10.588Z,1009.04
2017-03-22T13:22:20.829Z,1009.05
2017-03-22T13:23:30.434Z,1009.05
2017-03-22T13:24:40.700Z,1009.04
2017-03-22T13:25:50.928Z,1009.02
2017-03-22T13:27:00.560Z,1009
2017-03-22T13:28:10.488Z,1009
2017-03-22T13:29:20.101Z,1008.95
2017-03-22T13:30:30.606Z,1008.99
2017-03-22T13:31:40.830Z,1009
2017-03-22T13:32:50.454Z,1008.98
2017-03-22T13:34:00.370Z,1009.05
2017-03-22T13:35:10.291Z,1009.03
2017-03-22T13:36:20.660Z,1008.98
2017-03-22T13:37:30.278Z,1009.01
2017-03-22T13:38:40.541Z,1008.99
2017-03-22T13:39:50.155Z,1009.07
2017-03-22T13:41:00.382Z,1009.06
2017-03-22T13:42:09.674Z,1009.05
2017-03-22T13:43:19.899Z,1008.96
2017-03-22T13:44:29.198Z,1009.01
2017-03-22T13:45:38.813Z,1009
2017-03-22T13:46:49.042Z,1009
2017-03-22T13:47:58.754Z,1009.02
2017-03-22T13:49:08.053Z,1008.97
2017-03-22T13:50:17.965Z,1008.97
2017-03-22T13:51:27.578Z,1008.9
2017-03-22T13:52:37.495Z,1008.95
2017-03-22T13:53:47.345Z,1008.93
2017-03-22T13:54:57.262Z,1008.93
2017-03-22T13:56:07.180Z,1008.9
2017-03-22T13:57:17.100Z,1008.9
2017-03-22T13:58:27.329Z,1008.88
2017-03-22T13:59:37.370Z,1008.88
2017-03-22T14:00:47.592Z,1008.89
2017-03-22T14:01:57.818Z,1008.85
2017-03-22T14:03:07.730Z,1008.83
2017-03-22T14:04:17.345Z,1008.81
2017-03-22T14:05:27.264Z,1008.81
2017-03-22T14:06:36.901Z,1008.81
2017-03-22T14:07:46.840Z,1008.86
2017-03-22T14:08:56.844Z,1008.81